Time;durP1;ratioP1;P1;durP2;ratioP2;P2;SDS_P1;SDS_P2;PMS_P1;PMS_P2;Temp;Humidity;BMP_temperature;BMP_pressure;BME280_temperature;BME280_humidity;BME280_pressure;Samples;Min_cycle;Max_cycle;Signal;HPM_P1;HPM_P2
2023/08/21 00:01:37;;;;;;;5.43;2.50;;;27.80;56.90;;;;;;2586995;53;20952;-70
2023/08/21 00:04:03;;;;;;;4.70;2.90;;;27.80;56.90;;;;;;2341998;55;21136;-68
2023/08/21 00:06:30;;;;;;;3.65;2.50;;;27.70;56.80;;;;;;2341682;54;20941;-69
2023/08/21 00:09:00;;;;;;;3.50;2.25;;;27.80;56.90;;;;;;2587220;53;20972;-69
2023/08/21 00:11:26;;;;;;;3.50;2.40;;;27.80;56.90;;;;;;2587008;53;20949;-69
2023/08/21 00:13:53;;;;;;;4.12;2.33;;;27.80;56.90;;;;;;2587392;53;20952;-69
2023/08/21 00:16:20;;;;;;;3.80;2.12;;;27.70;56.80;;;;;;2336435;54;20956;-67
2023/08/21 00:18:47;;;;;;;3.90;2.45;;;27.70;56.80;;;;;;2566250;53;20940;-70
2023/08/21 00:21:13;;;;;;;4.22;2.37;;;27.70;56.90;;;;;;2588004;53;21740;-69
2023/08/21 00:23:39;;;;;;;4.30;2.17;;;27.60;56.90;;;;;;2340556;54;20949;-68
2023/08/21 00:26:05;;;;;;;3.40;2.30;;;27.60;56.90;;;;;;2587797;53;20996;-71
2023/08/21 00:28:33;;;;;;;3.33;2.30;;;27.60;56.90;;;;;;2341062;54;21012;-68
2023/08/21 00:31:02;;;;;;;4.80;2.53;;;27.60;57.00;;;;;;2341672;55;21676;-69
2023/08/21 00:33:31;;;;;;;3.67;2.47;;;27.60;57.20;;;;;;2558549;53;20943;-69
2023/08/21 00:35:57;;;;;;;3.92;2.62;;;27.50;57.10;;;;;;2317024;54;20957;-68
2023/08/21 00:38:24;;;;;;;3.33;2.42;;;27.50;57.10;;;;;;2588169;53;21885;-67
2023/08/21 00:40:52;;;;;;;4.78;2.58;;;27.50;57.20;;;;;;2587810;53;21000;-67
2023/08/21 00:43:18;;;;;;;3.50;2.50;;;27.50;57.20;;;;;;2587858;53;20960;-68
2023/08/21 00:45:45;;;;;;;3.97;2.45;;;27.50;57.20;;;;;;2339683;54;20957;-71
2023/08/21 00:48:11;;;;;;;4.15;2.72;;;27.50;57.30;;;;;;2587476;53;21027;-71
2023/08/21 00:50:38;;;;;;;3.60;2.33;;;27.50;57.30;;;;;;2341210;54;20932;-67
2023/08/21 00:53:04;;;;;;;4.22;2.62;;;27.40;57.20;;;;;;2340962;53;21127;-72
2023/08/21 00:55:31;;;;;;;3.45;2.40;;;27.40;57.30;;;;;;2340282;55;20963;-67
2023/08/21 00:57:58;;;;;;;3.97;2.80;;;27.40;57.30;;;;;;2554257;53;20979;-67
2023/08/21 01:00:24;;;;;;;4.40;2.65;;;27.30;57.30;;;;;;2341803;55;21041;-68
2023/08/21 01:02:51;;;;;;;4.62;2.78;;;27.40;57.40;;;;;;2317863;54;20975;-71
2023/08/21 01:05:19;;;;;;;3.70;2.53;;;27.30;57.40;;;;;;2324068;54;21016;-68
2023/08/21 01:07:50;;;;;;;3.53;2.53;;;27.30;57.50;;;;;;2318512;54;21465;-68
2023/08/21 01:10:19;;;;;;;4.18;2.83;;;27.30;57.60;;;;;;2582593;53;20913;-69
2023/08/21 01:12:56;;;;;;;4.30;2.90;;;27.30;57.60;;;;;;2341775;54;21300;-68
2023/08/21 01:15:22;;;;;;;4.62;2.70;;;27.20;57.60;;;;;;2342472;54;20961;-68
2023/08/21 01:17:48;;;;;;;6.30;3.00;;;27.20;57.60;;;;;;2340973;54;21448;-67
2023/08/21 01:20:14;;;;;;;5.65;2.60;;;27.20;57.60;;;;;;2587816;53;20949;-69
2023/08/21 01:22:50;;;;;;;4.40;2.65;;;27.20;57.60;;;;;;2587387;53;20945;-68
2023/08/21 01:25:16;;;;;;;4.78;3.00;;;27.20;57.70;;;;;;2587927;53;20929;-69
2023/08/21 01:27:45;;;;;;;3.10;2.40;;;27.20;57.70;;;;;;2587211;53;20920;-67
2023/08/21 01:30:12;;;;;;;3.97;2.47;;;27.20;57.80;;;;;;2588239;53;21275;-67
2023/08/21 01:33:11;;;;;;;4.40;2.90;;;27.10;57.70;;;;;;2587573;53;20960;-66
2023/08/21 01:35:37;;;;;;;3.90;2.40;;;27.10;58.10;;;;;;2329829;54;21758;-73
2023/08/21 01:38:04;;;;;;;3.15;2.15;;;27.10;57.80;;;;;;2570567;53;20984;-69
2023/08/21 01:40:30;;;;;;;4.22;2.72;;;27.10;57.80;;;;;;2582555;53;21041;-68
2023/08/21 01:42:57;;;;;;;4.43;2.92;;;27.00;57.90;;;;;;2587160;53;21682;-71
2023/08/21 01:45:25;;;;;;;3.83;2.50;;;27.00;57.90;;;;;;2587676;53;20929;-68
2023/08/21 01:47:54;;;;;;;5.28;2.58;;;27.00;58.00;;;;;;2341649;55;21001;-72
2023/08/21 01:50:20;;;;;;;5.07;2.70;;;27.00;58.10;;;;;;2342416;54;21434;-70
2023/08/21 01:52:50;;;;;;;4.05;2.50;;;27.00;58.00;;;;;;2587034;53;20961;-70
2023/08/21 01:55:17;;;;;;;4.40;2.15;;;27.00;58.00;;;;;;2588226;53;20949;-68
2023/08/21 01:57:44;;;;;;;4.25;2.58;;;27.00;58.00;;;;;;2341674;54;20921;-69
2023/08/21 02:00:14;;;;;;;4.10;2.67;;;26.90;58.00;;;;;;2587662;53;21040;-68
2023/08/21 02:02:40;;;;;;;5.32;2.85;;;26.90;58.30;;;;;;2587676;53;21466;-71
2023/08/21 02:05:07;;;;;;;4.50;2.90;;;26.90;58.20;;;;;;2588388;53;21813;-71
2023/08/21 02:07:33;;;;;;;4.12;2.90;;;26.90;58.20;;;;;;2341825;54;20931;-68
2023/08/21 02:10:00;;;;;;;3.75;2.67;;;26.90;58.30;;;;;;2588096;53;20925;-68
2023/08/21 02:12:26;;;;;;;5.12;2.83;;;26.80;58.30;;;;;;2588434;53;20940;-69
2023/08/21 02:14:53;;;;;;;4.25;2.90;;;26.90;58.40;;;;;;2341368;54;21048;-66
2023/08/21 02:17:19;;;;;;;4.18;2.60;;;26.80;58.30;;;;;;2588051;53;20944;-66
2023/08/21 02:19:45;;;;;;;4.12;2.33;;;26.80;58.40;;;;;;2587407;53;20974;-67
2023/08/21 02:22:13;;;;;;;3.90;2.85;;;26.80;58.40;;;;;;2588711;53;20948;-71
2023/08/21 02:24:47;;;;;;;4.18;3.00;;;26.80;58.40;;;;;;2342366;54;20972;-70
2023/08/21 02:27:13;;;;;;;5.15;3.08;;;26.80;58.50;;;;;;2541298;54;21912;-68
2023/08/21 02:29:40;;;;;;;4.07;2.58;;;26.70;58.40;;;;;;2327122;54;21008;-70
2023/08/21 02:32:07;;;;;;;3.90;2.42;;;26.70;58.40;;;;;;2553109;53;20929;-70
2023/08/21 02:34:34;;;;;;;3.75;2.58;;;26.70;58.40;;;;;;2342174;55;21056;-70
2023/08/21 02:37:04;;;;;;;5.65;2.72;;;26.70;58.50;;;;;;2587923;53;20972;-73
2023/08/21 02:39:31;;;;;;;4.30;2.60;;;26.70;58.60;;;;;;2341870;55;20953;-70
2023/08/21 02:41:57;;;;;;;5.78;3.10;;;26.60;58.60;;;;;;2342616;54;20956;-69
2023/08/21 02:44:23;;;;;;;6.30;2.97;;;26.60;58.60;;;;;;2558112;53;21403;-69
2023/08/21 02:46:49;;;;;;;4.47;2.90;;;26.60;58.70;;;;;;2586519;53;20925;-71
2023/08/21 02:49:16;;;;;;;5.60;2.45;;;26.60;58.80;;;;;;2587711;53;20969;-71
2023/08/21 02:51:43;;;;;;;5.20;3.20;;;26.60;58.80;;;;;;2587341;53;21419;-71
2023/08/21 02:54:12;;;;;;;4.70;3.20;;;26.50;58.70;;;;;;2341998;55;20948;-68
2023/08/21 02:56:39;;;;;;;4.70;2.70;;;26.50;58.70;;;;;;2341456;55;20968;-70
2023/08/21 02:59:05;;;;;;;5.97;2.60;;;26.50;58.70;;;;;;2342168;55;21041;-68
2023/08/21 03:01:32;;;;;;;4.30;2.95;;;26.50;58.80;;;;;;2341308;54;21060;-69
2023/08/21 03:03:58;;;;;;;4.30;2.80;;;26.50;58.80;;;;;;2317537;54;21568;-70
2023/08/21 03:06:24;;;;;;;4.57;3.05;;;26.50;59.00;;;;;;2342743;55;21024;-71
2023/08/21 03:08:50;;;;;;;5.07;3.10;;;26.50;59.00;;;;;;2562875;52;20919;-68
2023/08/21 03:11:17;;;;;;;4.87;3.17;;;26.40;58.90;;;;;;2314168;54;21498;-69
2023/08/21 03:13:43;;;;;;;3.62;2.37;;;26.40;58.90;;;;;;2587532;53;20968;-68
2023/08/21 03:16:09;;;;;;;3.70;2.55;;;26.40;58.90;;;;;;2588161;53;21687;-68
2023/08/21 03:19:05;;;;;;;4.50;2.90;;;26.40;58.90;;;;;;2342001;55;20964;-68
2023/08/21 03:21:34;;;;;;;3.72;2.33;;;26.40;59.20;;;;;;2342039;55;21470;-72
2023/08/21 03:24:00;;;;;;;3.90;2.67;;;26.40;59.00;;;;;;2560691;53;20928;-69
2023/08/21 03:26:28;;;;;;;3.92;2.70;;;26.30;59.00;;;;;;2337656;54;20988;-71
2023/08/21 03:28:54;;;;;;;4.40;3.03;;;26.30;59.00;;;;;;2587469;53;21052;-68
2023/08/21 03:31:21;;;;;;;6.07;3.03;;;26.30;59.20;;;;;;2341828;54;21083;-68
2023/08/21 03:33:47;;;;;;;4.45;3.03;;;26.30;59.20;;;;;;2341721;55;21012;-69
2023/08/21 03:36:13;;;;;;;3.62;2.40;;;26.30;59.20;;;;;;2342059;53;21781;-68
2023/08/21 03:38:40;;;;;;;3.92;2.70;;;26.30;59.30;;;;;;2342197;55;20956;-69
2023/08/21 03:41:06;;;;;;;4.07;3.03;;;26.30;59.40;;;;;;2342690;54;20976;-69
2023/08/21 03:43:32;;;;;;;3.72;2.70;;;26.30;59.50;;;;;;2341513;54;21497;-69
2023/08/21 03:46:01;;;;;;;6.40;3.08;;;26.30;59.50;;;;;;2587337;53;20957;-68
2023/08/21 03:48:28;;;;;;;3.75;2.53;;;26.20;59.40;;;;;;2588042;53;20952;-71
2023/08/21 03:50:54;;;;;;;4.15;3.00;;;26.30;59.50;;;;;;2340911;55;20921;-69
2023/08/21 03:53:20;;;;;;;4.72;3.22;;;26.20;59.40;;;;;;2341747;54;20953;-70
2023/08/21 03:55:47;;;;;;;4.95;3.28;;;26.20;59.50;;;;;;2587470;53;21060;-68
2023/08/21 03:58:14;;;;;;;4.18;3.17;;;26.20;59.60;;;;;;2342065;55;21907;-68
2023/08/21 04:00:40;;;;;;;4.95;3.22;;;26.20;59.70;;;;;;2342042;55;20940;-70
2023/08/21 04:03:07;;;;;;;4.10;2.78;;;26.20;59.70;;;;;;2342012;55;20984;-70
2023/08/21 04:05:34;;;;;;;4.95;3.22;;;26.20;59.70;;;;;;2342236;55;21040;-71
2023/08/21 04:08:00;;;;;;;4.70;3.17;;;26.20;59.70;;;;;;2341663;55;20996;-69
2023/08/21 04:10:27;;;;;;;6.57;3.55;;;26.10;59.70;;;;;;2342470;54;20992;-69
2023/08/21 04:12:56;;;;;;;4.80;3.40;;;26.10;59.90;;;;;;2341827;55;20941;-70
2023/08/21 04:15:23;;;;;;;5.22;3.53;;;26.20;60.10;;;;;;2588462;53;22009;-69
2023/08/21 04:17:49;;;;;;;4.80;3.30;;;26.20;60.00;;;;;;2587810;53;21064;-70
2023/08/21 04:20:18;;;;;;;4.18;3.08;;;26.20;60.00;;;;;;2588468;53;20977;-68
2023/08/21 04:22:45;;;;;;;6.18;3.80;;;26.10;59.90;;;;;;2587407;53;20940;-68
2023/08/21 04:25:12;;;;;;;8.23;2.95;;;26.10;59.90;;;;;;2341946;54;20992;-69
2023/08/21 04:27:38;;;;;;;4.18;2.95;;;26.10;60.00;;;;;;2341789;55;21003;-68
2023/08/21 04:30:05;;;;;;;5.62;3.50;;;26.10;59.90;;;;;;2342932;55;21261;-71
2023/08/21 04:32:32;;;;;;;4.12;3.12;;;26.10;60.00;;;;;;2341639;55;21008;-69
2023/08/21 04:34:58;;;;;;;4.18;3.10;;;26.00;60.00;;;;;;2341737;54;20936;-68
2023/08/21 04:37:27;;;;;;;4.50;3.60;;;26.00;60.00;;;;;;2587773;53;20968;-69
2023/08/21 04:39:53;;;;;;;4.47;3.10;;;26.00;60.00;;;;;;2547819;54;21004;-69
2023/08/21 04:42:20;;;;;;;4.82;3.15;;;26.10;60.10;;;;;;2533833;53;20963;-71
2023/08/21 04:44:48;;;;;;;4.75;3.00;;;26.00;60.00;;;;;;2292880;54;21216;-69
2023/08/21 04:47:26;;;;;;;4.18;2.92;;;26.00;60.00;;;;;;2547917;54;21020;-70
2023/08/21 04:49:54;;;;;;;4.60;3.37;;;26.00;60.30;;;;;;2574095;53;20940;-69
2023/08/21 04:52:21;;;;;;;4.20;2.62;;;26.00;60.00;;;;;;2310272;54;21758;-71
2023/08/21 04:54:48;;;;;;;5.35;2.80;;;26.00;60.00;;;;;;2309097;55;21898;-68
2023/08/21 04:57:14;;;;;;;4.43;2.83;;;25.90;60.00;;;;;;2548228;54;21390;-71
2023/08/21 04:59:40;;;;;;;4.12;2.85;;;26.00;60.00;;;;;;2311398;55;20925;-70
2023/08/21 05:02:06;;;;;;;3.95;2.75;;;26.00;60.00;;;;;;2311302;54;21497;-69
2023/08/21 05:04:36;;;;;;;3.83;2.70;;;25.90;60.00;;;;;;2548384;54;20988;-68
2023/08/21 05:07:02;;;;;;;4.40;3.20;;;25.90;60.10;;;;;;2562518;53;20988;-68
2023/08/21 05:09:29;;;;;;;4.20;3.03;;;25.90;60.00;;;;;;2581249;53;20908;-67
2023/08/21 05:11:55;;;;;;;5.35;3.22;;;25.90;60.10;;;;;;2307959;53;21828;-70
2023/08/21 05:14:22;;;;;;;4.68;3.25;;;25.90;60.30;;;;;;2546196;54;20922;-67
2023/08/21 05:16:52;;;;;;;3.85;2.78;;;25.90;60.30;;;;;;2548610;54;21048;-69
2023/08/21 05:19:18;;;;;;;4.15;2.87;;;25.90;60.40;;;;;;2548369;54;20953;-67
2023/08/21 05:21:45;;;;;;;4.07;3.12;;;25.90;60.30;;;;;;2309941;54;20937;-69
2023/08/21 05:24:12;;;;;;;4.30;3.08;;;25.90;60.40;;;;;;2544247;54;21035;-68
2023/08/21 05:26:39;;;;;;;5.15;3.05;;;25.90;60.40;;;;;;2565582;53;20904;-69
2023/08/21 05:29:05;;;;;;;4.03;2.70;;;25.90;60.40;;;;;;2336459;55;20935;-69
2023/08/21 05:31:31;;;;;;;4.07;2.97;;;25.80;60.40;;;;;;2581276;53;20952;-68
2023/08/21 05:34:01;;;;;;;4.28;3.30;;;25.80;60.40;;;;;;2581221;53;21512;-71
2023/08/21 05:36:27;;;;;;;5.05;3.00;;;25.80;60.50;;;;;;2336783;55;20998;-68
2023/08/21 05:38:53;;;;;;;4.70;2.95;;;25.80;60.60;;;;;;2315451;55;20961;-71
2023/08/21 05:41:19;;;;;;;5.28;3.40;;;25.80;60.60;;;;;;2555288;53;20982;-72
2023/08/21 05:43:47;;;;;;;6.15;3.15;;;25.80;60.60;;;;;;2543997;54;20949;-70
2023/08/21 05:46:15;;;;;;;4.05;2.97;;;25.80;60.70;;;;;;2290823;55;21011;-69
2023/08/21 05:48:44;;;;;;;5.68;3.08;;;25.80;60.70;;;;;;2548870;53;21802;-69
2023/08/21 05:51:12;;;;;;;5.30;3.30;;;25.90;60.90;;;;;;2548144;54;20921;-69
2023/08/21 05:53:38;;;;;;;5.30;3.35;;;25.80;61.00;;;;;;2555939;53;20947;-68
2023/08/21 05:56:05;;;;;;;5.03;3.87;;;25.80;61.10;;;;;;2580745;53;20908;-69
2023/08/21 05:58:32;;;;;;;6.68;4.00;;;25.80;61.20;;;;;;2305791;55;21006;-69
2023/08/21 06:00:59;;;;;;;4.90;3.78;;;25.90;61.40;;;;;;2292191;54;20920;-69
2023/08/21 06:03:25;;;;;;;5.78;3.53;;;25.90;61.50;;;;;;2309626;55;21512;-68
2023/08/21 06:05:51;;;;;;;6.90;4.07;;;25.90;61.50;;;;;;2548904;53;21007;-70
2023/08/21 06:08:18;;;;;;;6.28;4.43;;;25.90;61.70;;;;;;2548804;53;21487;-71
2023/08/21 06:10:44;;;;;;;5.18;3.53;;;25.90;61.90;;;;;;2525159;53;20971;-68
2023/08/21 06:13:10;;;;;;;5.32;4.30;;;26.00;62.00;;;;;;2541240;53;21005;-68
2023/08/21 06:15:37;;;;;;;6.57;4.93;;;26.00;62.00;;;;;;2540848;53;20925;-68
2023/08/21 06:18:04;;;;;;;5.22;4.20;;;26.00;62.10;;;;;;2549342;53;21025;-68
2023/08/21 06:20:30;;;;;;;5.70;4.57;;;26.00;62.20;;;;;;2310985;55;20966;-69
2023/08/21 06:22:56;;;;;;;7.28;5.05;;;26.10;62.50;;;;;;2367266;53;2294683;-68
2023/08/21 06:25:25;;;;;;;7.68;4.32;;;26.10;62.60;;;;;;2310047;55;21436;-69
2023/08/21 06:27:52;;;;;;;7.95;4.75;;;26.20;62.80;;;;;;2549142;53;20968;-68
2023/08/21 06:30:24;;;;;;;5.30;4.15;;;26.20;62.90;;;;;;2310672;54;20943;-71
2023/08/21 06:32:53;;;;;;;7.53;4.95;;;26.30;62.80;;;;;;2318934;54;20939;-70
2023/08/21 06:35:23;;;;;;;7.22;4.43;;;26.30;62.90;;;;;;2554272;53;20924;-68
2023/08/21 06:37:49;;;;;;;5.68;4.50;;;26.30;63.00;;;;;;2310042;54;20949;-69
2023/08/21 06:40:16;;;;;;;6.57;4.80;;;26.40;63.00;;;;;;2548764;53;20960;-68
2023/08/21 06:42:42;;;;;;;5.25;4.00;;;26.40;63.00;;;;;;2309017;55;21009;-69
2023/08/21 06:45:09;;;;;;;5.53;3.85;;;26.40;63.00;;;;;;2566206;53;21070;-70
2023/08/21 06:47:36;;;;;;;5.15;3.85;;;26.50;63.10;;;;;;2332829;55;20934;-72
2023/08/21 06:50:02;;;;;;;4.97;4.18;;;26.60;63.00;;;;;;2332108;55;20963;-69
2023/08/21 06:52:28;;;;;;;4.80;3.80;;;26.60;63.00;;;;;;2332534;55;21084;-69
2023/08/21 06:54:55;;;;;;;5.10;4.00;;;26.60;63.00;;;;;;2332189;55;20962;-70
2023/08/21 06:57:22;;;;;;;6.93;4.03;;;26.70;63.00;;;;;;2332903;55;20958;-69
2023/08/21 06:59:48;;;;;;;4.43;3.50;;;26.70;62.90;;;;;;2549793;53;21484;-72
2023/08/21 07:02:14;;;;;;;6.50;4.10;;;26.80;63.00;;;;;;2324315;54;21039;-69
2023/08/21 07:04:41;;;;;;;5.22;3.95;;;26.80;63.00;;;;;;2313528;54;21019;-70
2023/08/21 07:07:07;;;;;;;4.72;3.58;;;26.80;63.00;;;;;;2575717;53;20931;-69
2023/08/21 07:09:33;;;;;;;6.00;4.40;;;26.90;63.10;;;;;;2335780;55;21414;-68
2023/08/21 07:12:01;;;;;;;5.97;4.15;;;27.00;63.30;;;;;;2576824;53;20979;-67
2023/08/21 07:14:27;;;;;;;6.05;4.00;;;27.00;63.30;;;;;;2576942;53;21031;-70
2023/08/21 07:16:54;;;;;;;7.18;4.22;;;27.10;63.40;;;;;;2333522;55;20959;-70
2023/08/21 07:19:20;;;;;;;7.25;4.43;;;27.10;63.40;;;;;;2332283;55;21079;-69
2023/08/21 07:21:47;;;;;;;5.12;4.32;;;27.20;63.60;;;;;;2331655;55;21026;-70
2023/08/21 07:24:14;;;;;;;6.50;4.90;;;27.20;63.60;;;;;;2576440;53;21002;-70
2023/08/21 07:26:43;;;;;;;6.43;4.18;;;27.30;63.70;;;;;;2576628;53;20998;-69
2023/08/21 07:29:09;;;;;;;5.85;4.60;;;27.40;63.70;;;;;;2333212;55;20943;-70
2023/08/21 07:31:36;;;;;;;5.82;3.90;;;27.40;63.40;;;;;;2576895;53;20962;-70
2023/08/21 07:34:02;;;;;;;5.30;4.18;;;27.50;63.40;;;;;;2570365;53;20948;-69
2023/08/21 07:36:29;;;;;;;5.32;4.30;;;27.50;63.40;;;;;;2310660;54;20926;-70
2023/08/21 07:38:55;;;;;;;5.93;4.40;;;27.60;63.40;;;;;;2331300;55;20995;-68
2023/08/21 07:41:21;;;;;;;5.97;3.95;;;27.60;63.40;;;;;;2572628;53;21020;-72
2023/08/21 07:43:48;;;;;;;5.62;4.25;;;27.70;63.40;;;;;;2324522;55;22267;-70
2023/08/21 07:46:18;;;;;;;5.60;4.20;;;27.80;63.40;;;;;;2537832;54;20929;-70
2023/08/21 07:48:47;;;;;;;5.60;4.32;;;27.80;63.30;;;;;;2308653;54;20989;-70
2023/08/21 07:51:14;;;;;;;5.30;3.65;;;27.80;63.30;;;;;;2562289;53;21031;-69
2023/08/21 07:53:41;;;;;;;5.12;3.72;;;27.90;63.20;;;;;;2332265;55;21784;-69
2023/08/21 07:56:07;;;;;;;6.32;4.05;;;28.00;63.20;;;;;;2576107;53;20994;-70
2023/08/21 07:58:34;;;;;;;5.07;4.07;;;28.10;63.30;;;;;;2576462;53;20986;-69
2023/08/21 08:01:04;;;;;;;4.72;3.83;;;28.10;63.20;;;;;;2576189;53;20923;-69
2023/08/21 08:03:31;;;;;;;5.68;4.10;;;28.10;63.10;;;;;;2575193;53;21377;-70
2023/08/21 08:05:57;;;;;;;5.43;4.32;;;28.20;63.10;;;;;;2576169;53;20954;-70
2023/08/21 08:08:25;;;;;;;6.32;4.65;;;28.30;63.10;;;;;;2332232;54;20962;-70
2023/08/21 08:10:51;;;;;;;6.25;4.70;;;28.30;63.10;;;;;;2576057;53;20974;-70
2023/08/21 08:13:17;;;;;;;8.25;5.10;;;28.40;63.10;;;;;;2575733;53;21067;-70
2023/08/21 08:15:44;;;;;;;7.12;4.85;;;28.40;63.10;;;;;;2332477;55;20943;-70
2023/08/21 08:18:13;;;;;;;5.53;4.40;;;28.50;63.20;;;;;;2332344;55;22067;-70
2023/08/21 08:20:42;;;;;;;5.30;3.92;;;28.60;63.20;;;;;;2294367;55;20962;-71
2023/08/21 08:23:08;;;;;;;5.82;3.85;;;28.60;63.10;;;;;;2530120;53;21028;-69
2023/08/21 08:25:34;;;;;;;6.85;3.92;;;28.70;63.00;;;;;;2548576;54;21001;-72
2023/08/21 08:28:01;;;;;;;5.97;4.35;;;28.70;63.00;;;;;;2309672;55;20961;-69
2023/08/21 08:30:27;;;;;;;5.75;4.43;;;28.80;63.00;;;;;;2310127;54;21024;-69
2023/08/21 08:32:53;;;;;;;6.22;4.22;;;28.90;62.90;;;;;;2310784;55;21719;-71
2023/08/21 08:35:19;;;;;;;5.65;4.10;;;28.90;62.90;;;;;;2524147;54;20920;-69
2023/08/21 08:37:46;;;;;;;6.78;4.50;;;29.00;63.00;;;;;;2309743;55;21064;-70
2023/08/21 08:40:12;;;;;;;5.97;4.40;;;29.00;63.00;;;;;;2548479;54;20941;-70
2023/08/21 08:42:41;;;;;;;5.32;4.25;;;29.10;62.90;;;;;;2315605;55;21851;-70
2023/08/21 08:45:09;;;;;;;5.53;4.05;;;29.20;62.80;;;;;;2309242;54;21921;-67
2023/08/21 08:47:35;;;;;;;5.00;3.90;;;29.20;62.60;;;;;;2548963;53;21949;-70
2023/08/21 08:50:06;;;;;;;5.87;4.28;;;29.30;62.50;;;;;;2309289;55;20924;-72
2023/08/21 08:52:36;;;;;;;7.90;4.93;;;29.40;62.40;;;;;;2548306;53;20923;-70
2023/08/21 08:55:03;;;;;;;6.90;5.40;;;29.40;62.50;;;;;;2548608;53;20995;-70
2023/08/21 08:57:30;;;;;;;6.40;4.62;;;29.50;62.40;;;;;;2309710;55;20923;-71
2023/08/21 08:59:56;;;;;;;5.45;4.03;;;29.50;62.30;;;;;;2308481;55;21451;-69
2023/08/21 09:02:27;;;;;;;5.55;3.92;;;29.60;62.10;;;;;;2309383;55;20920;-70
2023/08/21 09:04:53;;;;;;;5.10;3.90;;;29.70;62.10;;;;;;2548249;53;21012;-69
2023/08/21 09:07:20;;;;;;;7.50;4.90;;;29.70;62.00;;;;;;2548941;53;20955;-69
2023/08/21 09:09:52;;;;;;;6.20;4.45;;;29.80;62.10;;;;;;2309176;55;21318;-69
2023/08/21 09:12:18;;;;;;;6.77;4.90;;;29.80;62.10;;;;;;2310148;55;20940;-70
2023/08/21 09:14:45;;;;;;;5.55;4.20;;;29.90;62.00;;;;;;2547921;53;21015;-72
2023/08/21 09:17:11;;;;;;;5.90;4.53;;;30.00;61.90;;;;;;2547889;53;21789;-72
2023/08/21 09:19:38;;;;;;;6.50;4.20;;;30.00;61.70;;;;;;2548167;53;20924;-68
2023/08/21 09:22:13;;;;;;;5.57;4.22;;;30.00;61.60;;;;;;2309158;55;20972;-69
2023/08/21 09:24:39;;;;;;;5.18;4.10;;;30.10;61.40;;;;;;2308672;55;20932;-72
2023/08/21 09:27:16;;;;;;;5.35;4.40;;;30.20;61.40;;;;;;2309859;55;21085;-70
2023/08/21 09:29:47;;;;;;;5.20;4.50;;;30.20;61.50;;;;;;2309699;55;20959;-70
2023/08/21 09:32:15;;;;;;;5.72;4.37;;;30.30;61.50;;;;;;2510219;54;20928;-70
2023/08/21 09:34:42;;;;;;;5.40;4.10;;;30.30;61.30;;;;;;2545630;53;21302;-70
2023/08/21 09:37:08;;;;;;;6.20;4.55;;;30.40;61.30;;;;;;2308972;54;21082;-70
2023/08/21 09:39:35;;;;;;;5.60;4.43;;;30.40;61.20;;;;;;2548699;53;21027;-70
2023/08/21 09:42:08;;;;;;;5.50;4.10;;;30.50;61.20;;;;;;2301501;54;21478;-69
2023/08/21 09:44:38;;;;;;;6.53;4.53;;;30.60;61.00;;;;;;2526617;53;20956;-71
2023/08/21 09:47:09;;;;;;;6.00;4.43;;;30.60;60.70;;;;;;2548427;53;20975;-71
2023/08/21 09:49:36;;;;;;;6.20;4.40;;;30.70;60.60;;;;;;2309956;54;20995;-68
2023/08/21 09:52:04;;;;;;;4.97;3.97;;;30.70;60.60;;;;;;2547113;53;21439;-70
2023/08/21 09:54:32;;;;;;;6.37;4.78;;;30.80;60.50;;;;;;2575585;53;20931;-69
2023/08/21 09:57:01;;;;;;;5.62;4.35;;;30.80;60.60;;;;;;2576791;53;21311;-70
2023/08/21 09:59:30;;;;;;;5.35;4.22;;;30.90;60.70;;;;;;2576461;53;21393;-69
2023/08/21 10:01:57;;;;;;;6.32;4.40;;;30.90;60.50;;;;;;2332319;55;21833;-69
2023/08/21 10:04:23;;;;;;;6.82;4.60;;;31.00;60.60;;;;;;2331805;55;20931;-70
2023/08/21 10:06:50;;;;;;;5.50;4.15;;;31.00;60.30;;;;;;2331843;55;20978;-70
2023/08/21 10:09:17;;;;;;;7.18;4.87;;;31.10;60.20;;;;;;2576834;53;21827;-69
2023/08/21 10:11:43;;;;;;;5.07;4.15;;;31.10;60.30;;;;;;2575997;53;21034;-69
2023/08/21 10:14:11;;;;;;;6.47;4.53;;;31.20;60.40;;;;;;2331619;55;20984;-70
2023/08/21 10:16:37;;;;;;;6.22;4.00;;;31.30;60.50;;;;;;2310534;54;21030;-71
2023/08/21 10:19:05;;;;;;;5.75;4.60;;;31.30;60.40;;;;;;2332846;55;20962;-71
2023/08/21 10:21:35;;;;;;;5.62;4.40;;;31.40;60.50;;;;;;2565500;53;20944;-69
2023/08/21 10:24:01;;;;;;;5.80;4.30;;;31.40;60.10;;;;;;2545109;53;21437;-71
2023/08/21 10:26:27;;;;;;;6.35;4.50;;;31.50;60.00;;;;;;2555680;53;20930;-73
2023/08/21 10:29:02;;;;;;;7.03;3.80;;;31.60;60.00;;;;;;2550408;53;21015;-71
2023/08/21 10:31:39;;;;;;;4.28;3.60;;;31.60;59.80;;;;;;2571924;53;21427;-71
2023/08/21 10:34:18;;;;;;;5.22;4.07;;;31.70;59.50;;;;;;2577645;53;20927;-70
2023/08/21 10:37:08;;;;;;;5.10;3.67;;;31.70;59.50;;;;;;2332040;55;20923;-72
2023/08/21 10:39:37;;;;;;;4.80;3.83;;;31.80;59.40;;;;;;2576632;53;20945;-73
2023/08/21 10:42:13;;;;;;;6.43;3.90;;;31.90;59.40;;;;;;2577967;53;20990;-71
2023/08/21 10:45:01;;;;;;;5.30;3.78;;;31.90;59.30;;;;;;2575994;53;20942;-74
2023/08/21 10:47:36;;;;;;;4.80;3.47;;;32.00;58.90;;;;;;2576135;53;21054;-72
2023/08/21 10:50:05;;;;;;;4.85;3.75;;;32.00;59.00;;;;;;2332947;55;21455;-70
2023/08/21 10:52:41;;;;;;;5.22;4.00;;;32.10;59.10;;;;;;2575481;53;20945;-72
2023/08/21 10:55:11;;;;;;;4.95;3.60;;;32.10;58.70;;;;;;2575761;53;20982;-72
2023/08/21 10:57:38;;;;;;;5.50;3.65;;;32.20;58.90;;;;;;2569858;53;20951;-72
2023/08/21 11:00:11;;;;;;;6.25;3.95;;;32.30;58.70;;;;;;2333457;55;21408;-72
2023/08/21 11:02:39;;;;;;;6.07;3.47;;;32.30;58.50;;;;;;2575821;53;20962;-70
2023/08/21 11:05:07;;;;;;;4.35;3.25;;;32.40;58.20;;;;;;2332254;55;20942;-72
2023/08/21 11:07:40;;;;;;;5.18;3.30;;;32.40;58.20;;;;;;2576377;53;21039;-71
2023/08/21 11:10:08;;;;;;;4.62;3.37;;;32.50;58.00;;;;;;2576420;53;21050;-70
2023/08/21 11:12:37;;;;;;;5.93;3.17;;;32.50;57.80;;;;;;2576824;53;21002;-70
2023/08/21 11:15:04;;;;;;;4.60;3.55;;;32.60;57.90;;;;;;2576726;53;20923;-71
2023/08/21 11:17:30;;;;;;;5.25;3.47;;;32.60;57.90;;;;;;2332967;55;20974;-71
2023/08/21 11:20:00;;;;;;;4.28;3.28;;;32.70;58.00;;;;;;2332534;55;20930;-71
2023/08/21 11:22:32;;;;;;;5.50;3.22;;;32.70;57.80;;;;;;2576468;53;20938;-71
2023/08/21 11:24:58;;;;;;;3.80;2.90;;;32.80;57.40;;;;;;2576291;53;21279;-70
2023/08/21 11:27:25;;;;;;;4.28;3.12;;;32.90;57.40;;;;;;2552046;53;20908;-71
2023/08/21 11:29:55;;;;;;;5.37;3.30;;;32.90;57.20;;;;;;2325817;55;20926;-72
2023/08/21 11:32:23;;;;;;;4.75;3.10;;;33.00;57.00;;;;;;2577215;53;20951;-72
2023/08/21 11:34:53;;;;;;;4.43;2.87;;;33.00;56.70;;;;;;2332418;55;20958;-71
2023/08/21 11:37:25;;;;;;;4.67;3.23;;;33.10;56.60;;;;;;2314879;54;21020;-70
2023/08/21 11:39:58;;;;;;;4.40;2.78;;;33.10;56.60;;;;;;2518615;53;20876;-71
2023/08/21 11:42:32;;;;;;;4.55;2.83;;;33.20;56.60;;;;;;2581299;53;21698;-69
2023/08/21 11:45:01;;;;;;;3.60;2.70;;;33.30;56.20;;;;;;2335874;55;22036;-71
2023/08/21 11:47:34;;;;;;;3.97;2.62;;;33.30;56.20;;;;;;2562082;53;20995;-72
2023/08/21 11:50:05;;;;;;;3.47;2.40;;;33.40;55.70;;;;;;2550117;53;21022;-70
2023/08/21 11:52:35;;;;;;;5.20;2.92;;;33.40;56.00;;;;;;2309446;55;20983;-71
2023/08/21 11:55:07;;;;;;;4.50;2.80;;;33.40;56.00;;;;;;2548260;54;21033;-70
2023/08/21 11:57:33;;;;;;;;;;;33.60;55.50;;;;;;2552263;54;21268;-70
2023/08/21 12:00:03;;;;;;;4.05;2.62;;;33.60;55.60;;;;;;2309221;55;20331;-71
2023/08/21 12:02:30;;;;;;;5.93;2.97;;;33.60;55.70;;;;;;2547660;54;20949;-72
2023/08/21 12:05:04;;;;;;;5.32;2.72;;;33.70;55.40;;;;;;2309353;54;21064;-70
2023/08/21 12:07:34;;;;;;;3.58;2.55;;;33.70;54.90;;;;;;2567953;53;21028;-71
2023/08/21 12:10:00;;;;;;;3.67;2.72;;;33.80;55.20;;;;;;2548051;54;21032;-71
2023/08/21 12:12:26;;;;;;;4.80;3.00;;;33.80;55.00;;;;;;2569042;53;20892;-71
2023/08/21 12:14:53;;;;;;;5.32;2.60;;;33.90;55.10;;;;;;2581262;53;20912;-72
2023/08/21 12:17:21;;;;;;;4.93;3.28;;;33.90;55.20;;;;;;2563234;53;20905;-72
2023/08/21 12:19:47;;;;;;;4.95;3.10;;;34.00;55.00;;;;;;2313400;54;21699;-75
2023/08/21 12:22:14;;;;;;;4.53;2.75;;;34.00;54.60;;;;;;2540945;54;20993;-70
2023/08/21 12:24:41;;;;;;;4.85;3.05;;;34.10;54.50;;;;;;2548181;54;20921;-71
2023/08/21 12:27:08;;;;;;;5.18;2.75;;;34.10;54.20;;;;;;2548683;54;21017;-69
2023/08/21 12:29:34;;;;;;;4.28;2.90;;;34.20;54.20;;;;;;2562474;53;20923;-69
2023/08/21 12:32:03;;;;;;;4.55;2.87;;;34.20;54.30;;;;;;2554498;53;21031;-70
2023/08/21 12:34:31;;;;;;;4.62;2.70;;;34.20;53.80;;;;;;2301814;54;20940;-71
2023/08/21 12:36:57;;;;;;;4.20;2.50;;;34.30;53.90;;;;;;2309388;55;21005;-71
2023/08/21 12:39:24;;;;;;;6.00;3.08;;;34.40;53.70;;;;;;2549513;53;20948;-72
2023/08/21 12:41:50;;;;;;;4.03;2.50;;;34.40;53.60;;;;;;2310270;54;20991;-72
2023/08/21 12:44:16;;;;;;;4.00;2.55;;;34.40;53.50;;;;;;2549714;53;21559;-72
2023/08/21 12:46:44;;;;;;;3.83;2.50;;;34.50;53.50;;;;;;2548508;53;20947;-73
2023/08/21 12:49:11;;;;;;;3.80;2.70;;;34.50;53.60;;;;;;2310836;54;20979;-72
2023/08/21 12:51:38;;;;;;;4.43;2.87;;;34.60;53.20;;;;;;2309318;55;21071;-71